sensor_id;sensor_type;location;lat;lon;timestamp;P1;durP1;ratioP1;P2;durP2;ratioP2
43801;SDS011;29429;51.074;13.764;2023-08-21T05:10:17;10.27;;;6.75;;
43801;SDS011;29429;51.074;13.764;2023-08-21T05:12:45;11.45;;;7.00;;
43801;SDS011;29429;51.074;13.764;2023-08-21T05:15:18;8.32;;;6.25;;
43801;SDS011;29429;51.074;13.764;2023-08-21T05:17:52;13.10;;;6.85;;
43801;SDS011;29429;51.074;13.764;2023-08-21T05:20:26;8.05;;;6.90;;
43801;SDS011;29429;51.074;13.764;2023-08-21T05:22:53;7.40;;;6.70;;
43801;SDS011;29429;51.074;13.764;2023-08-21T05:25:21;10.48;;;6.97;;
43801;SDS011;29429;51.074;13.764;2023-08-21T05:27:48;9.40;;;7.10;;
43801;SDS011;29429;51.074;13.764;2023-08-21T05:30:15;7.05;;;6.28;;
43801;SDS011;29429;51.074;13.764;2023-08-21T05:32:43;7.32;;;6.50;;
43801;SDS011;29429;51.074;13.764;2023-08-21T05:35:10;8.27;;;6.97;;
43801;SDS011;29429;51.074;13.764;2023-08-21T05:37:39;8.75;;;7.47;;
43801;SDS011;29429;51.074;13.764;2023-08-21T05:40:07;7.78;;;7.00;;
43801;SDS011;29429;51.074;13.764;2023-08-21T05:42:35;10.43;;;7.53;;
43801;SDS011;29429;51.074;13.764;2023-08-21T05:45:03;9.32;;;7.28;;
43801;SDS011;29429;51.074;13.764;2023-08-21T05:47:33;9.88;;;8.38;;
43801;SDS011;29429;51.074;13.764;2023-08-21T05:50:00;9.98;;;7.80;;
43801;SDS011;29429;51.074;13.764;2023-08-21T05:52:28;11.15;;;8.35;;
43801;SDS011;29429;51.074;13.764;2023-08-21T05:54:55;9.20;;;7.82;;
43801;SDS011;29429;51.074;13.764;2023-08-21T05:57:23;9.65;;;8.10;;
43801;SDS011;29429;51.074;13.764;2023-08-21T05:59:51;9.27;;;7.18;;
43801;SDS011;29429;51.074;13.764;2023-08-21T06:02:20;10.65;;;8.10;;
43801;SDS011;29429;51.074;13.764;2023-08-21T06:04:47;9.98;;;8.15;;
43801;SDS011;29429;51.074;13.764;2023-08-21T06:07:15;8.93;;;8.00;;
43801;SDS011;29429;51.074;13.764;2023-08-21T06:09:44;8.80;;;7.13;;
43801;SDS011;29429;51.074;13.764;2023-08-21T06:12:11;12.65;;;9.80;;
43801;SDS011;29429;51.074;13.764;2023-08-21T06:14:40;14.13;;;10.50;;
43801;SDS011;29429;51.074;13.764;2023-08-21T06:17:08;10.00;;;8.45;;
43801;SDS011;29429;51.074;13.764;2023-08-21T06:19:36;8.98;;;8.05;;
43801;SDS011;29429;51.074;13.764;2023-08-21T06:22:04;13.98;;;10.85;;
43801;SDS011;29429;51.074;13.764;2023-08-21T06:24:32;11.55;;;9.30;;
43801;SDS011;29429;51.074;13.764;2023-08-21T06:27:02;10.23;;;9.18;;
43801;SDS011;29429;51.074;13.764;2023-08-21T06:29:33;15.32;;;10.38;;
43801;SDS011;29429;51.074;13.764;2023-08-21T06:32:01;10.93;;;9.82;;
43801;SDS011;29429;51.074;13.764;2023-08-21T06:34:28;12.75;;;8.77;;
43801;SDS011;29429;51.074;13.764;2023-08-21T06:36:56;12.35;;;9.45;;
43801;SDS011;29429;51.074;13.764;2023-08-21T06:39:25;11.20;;;9.93;;
43801;SDS011;29429;51.074;13.764;2023-08-21T06:41:52;11.23;;;8.82;;
43801;SDS011;29429;51.074;13.764;2023-08-21T06:44:20;11.63;;;10.07;;
43801;SDS011;29429;51.074;13.764;2023-08-21T06:46:48;10.82;;;9.70;;
43801;SDS011;29429;51.074;13.764;2023-08-21T06:49:15;11.65;;;8.93;;
43801;SDS011;29429;51.074;13.764;2023-08-21T06:51:43;10.50;;;8.88;;
43801;SDS011;29429;51.074;13.764;2023-08-21T06:54:10;9.25;;;8.40;;
43801;SDS011;29429;51.074;13.764;2023-08-21T06:56:38;11.18;;;9.80;;
43801;SDS011;29429;51.074;13.764;2023-08-21T06:59:05;11.00;;;8.45;;
43801;SDS011;29429;51.074;13.764;2023-08-21T07:01:33;10.20;;;7.93;;
43801;SDS011;29429;51.074;13.764;2023-08-21T07:04:01;10.25;;;8.18;;
43801;SDS011;29429;51.074;13.764;2023-08-21T07:06:28;10.52;;;8.30;;
43801;SDS011;29429;51.074;13.764;2023-08-21T07:08:56;11.13;;;8.18;;
43801;SDS011;29429;51.074;13.764;2023-08-21T07:11:24;10.38;;;7.82;;
43801;SDS011;29429;51.074;13.764;2023-08-21T07:13:51;9.10;;;7.60;;
43801;SDS011;29429;51.074;13.764;2023-08-21T07:16:19;9.70;;;8.70;;
43801;SDS011;29429;51.074;13.764;2023-08-21T07:18:46;10.90;;;9.77;;
43801;SDS011;29429;51.074;13.764;2023-08-21T07:21:14;8.50;;;7.70;;
43801;SDS011;29429;51.074;13.764;2023-08-21T07:23:58;8.00;;;7.00;;
43801;SDS011;29429;51.074;13.764;2023-08-21T07:26:27;7.90;;;7.10;;
43801;SDS011;29429;51.074;13.764;2023-08-21T07:28:55;10.10;;;8.98;;
43801;SDS011;29429;51.074;13.764;2023-08-21T07:31:22;10.15;;;7.82;;
43801;SDS011;29429;51.074;13.764;2023-08-21T07:33:50;9.13;;;8.13;;
43801;SDS011;29429;51.074;13.764;2023-08-21T07:36:18;10.15;;;8.05;;
43801;SDS011;29429;51.074;13.764;2023-08-21T07:38:49;9.40;;;8.10;;
43801;SDS011;29429;51.074;13.764;2023-08-21T07:41:17;9.50;;;7.20;;
43801;SDS011;29429;51.074;13.764;2023-08-21T07:43:46;8.93;;;7.10;;
43801;SDS011;29429;51.074;13.764;2023-08-21T07:46:13;8.10;;;7.05;;
43801;SDS011;29429;51.074;13.764;2023-08-21T07:48:45;9.27;;;7.65;;
43801;SDS011;29429;51.074;13.764;2023-08-21T07:51:23;9.27;;;8.10;;
43801;SDS011;29429;51.074;13.764;2023-08-21T07:53:54;7.32;;;6.35;;
43801;SDS011;29429;51.074;13.764;2023-08-21T07:56:25;8.93;;;7.38;;
43801;SDS011;29429;51.074;13.764;2023-08-21T07:58:52;9.75;;;7.32;;
43801;SDS011;29429;51.074;13.764;2023-08-21T08:01:20;9.65;;;6.60;;
43801;SDS011;29429;51.074;13.764;2023-08-21T08:03:50;9.23;;;7.70;;
43801;SDS011;29429;51.074;13.764;2023-08-21T08:06:39;10.10;;;7.80;;
43801;SDS011;29429;51.074;13.764;2023-08-21T08:09:08;9.23;;;8.05;;
43801;SDS011;29429;51.074;13.764;2023-08-21T08:11:35;9.07;;;7.43;;
43801;SDS011;29429;51.074;13.764;2023-08-21T08:14:11;9.45;;;7.75;;
43801;SDS011;29429;51.074;13.764;2023-08-21T08:16:39;10.40;;;9.15;;
43801;SDS011;29429;51.074;13.764;2023-08-21T08:19:06;9.02;;;8.13;;
43801;SDS011;29429;51.074;13.764;2023-08-21T08:21:34;10.30;;;8.98;;
43801;SDS011;29429;51.074;13.764;2023-08-21T08:24:02;14.45;;;10.30;;
43801;SDS011;29429;51.074;13.764;2023-08-21T08:26:30;23.33;;;9.20;;
43801;SDS011;29429;51.074;13.764;2023-08-21T08:28:57;9.85;;;8.40;;
43801;SDS011;29429;51.074;13.764;2023-08-21T08:31:25;16.15;;;9.75;;
43801;SDS011;29429;51.074;13.764;2023-08-21T08:33:54;10.93;;;8.73;;
43801;SDS011;29429;51.074;13.764;2023-08-21T08:36:21;11.65;;;9.15;;
43801;SDS011;29429;51.074;13.764;2023-08-21T08:38:49;10.95;;;7.95;;
43801;SDS011;29429;51.074;13.764;2023-08-21T08:41:29;8.75;;;7.15;;
43801;SDS011;29429;51.074;13.764;2023-08-21T08:44:17;8.93;;;7.93;;
43801;SDS011;29429;51.074;13.764;2023-08-21T08:46:44;8.20;;;7.40;;
43801;SDS011;29429;51.074;13.764;2023-08-21T08:49:12;9.20;;;7.60;;
43801;SDS011;29429;51.074;13.764;2023-08-21T08:51:39;11.60;;;8.55;;
43801;SDS011;29429;51.074;13.764;2023-08-21T08:54:08;11.00;;;8.60;;
43801;SDS011;29429;51.074;13.764;2023-08-21T08:56:38;10.07;;;8.10;;
43801;SDS011;29429;51.074;13.764;2023-08-21T08:59:07;9.63;;;8.60;;
43801;SDS011;29429;51.074;13.764;2023-08-21T09:01:35;9.38;;;7.63;;
43801;SDS011;29429;51.074;13.764;2023-08-21T09:04:02;8.85;;;7.65;;
43801;SDS011;29429;51.074;13.764;2023-08-21T09:06:31;9.95;;;7.03;;
43801;SDS011;29429;51.074;13.764;2023-08-21T09:09:00;7.70;;;6.95;;
43801;SDS011;29429;51.074;13.764;2023-08-21T09:11:27;7.68;;;6.82;;
43801;SDS011;29429;51.074;13.764;2023-08-21T09:13:55;7.28;;;6.57;;
43801;SDS011;29429;51.074;13.764;2023-08-21T09:16:23;8.85;;;7.45;;
43801;SDS011;29429;51.074;13.764;2023-08-21T09:18:53;10.25;;;7.55;;
43801;SDS011;29429;51.074;13.764;2023-08-21T09:21:25;8.57;;;7.45;;
43801;SDS011;29429;51.074;13.764;2023-08-21T09:23:58;7.28;;;6.43;;
43801;SDS011;29429;51.074;13.764;2023-08-21T09:26:27;9.15;;;7.00;;
43801;SDS011;29429;51.074;13.764;2023-08-21T09:28:58;6.93;;;6.32;;
43801;SDS011;29429;51.074;13.764;2023-08-21T09:31:31;8.27;;;6.57;;
43801;SDS011;29429;51.074;13.764;2023-08-21T09:34:01;8.07;;;6.53;;
43801;SDS011;29429;51.074;13.764;2023-08-21T09:36:33;7.68;;;5.80;;
43801;SDS011;29429;51.074;13.764;2023-08-21T09:39:02;7.70;;;6.38;;
43801;SDS011;29429;51.074;13.764;2023-08-21T09:41:30;6.75;;;6.07;;
43801;SDS011;29429;51.074;13.764;2023-08-21T09:44:00;6.05;;;5.45;;
43801;SDS011;29429;51.074;13.764;2023-08-21T09:46:27;6.03;;;5.43;;
43801;SDS011;29429;51.074;13.764;2023-08-21T09:48:55;6.30;;;5.22;;
43801;SDS011;29429;51.074;13.764;2023-08-21T09:51:23;5.88;;;4.93;;
43801;SDS011;29429;51.074;13.764;2023-08-21T09:53:52;7.45;;;5.38;;
43801;SDS011;29429;51.074;13.764;2023-08-21T09:56:21;7.47;;;5.45;;
43801;SDS011;29429;51.074;13.764;2023-08-21T09:58:49;7.55;;;5.30;;
43801;SDS011;29429;51.074;13.764;2023-08-21T10:01:18;5.72;;;4.88;;
43801;SDS011;29429;51.074;13.764;2023-08-21T10:03:48;7.65;;;5.90;;
43801;SDS011;29429;51.074;13.764;2023-08-21T10:06:17;5.70;;;5.05;;
43801;SDS011;29429;51.074;13.764;2023-08-21T10:08:48;5.93;;;4.50;;
43801;SDS011;29429;51.074;13.764;2023-08-21T10:11:20;4.90;;;4.15;;
43801;SDS011;29429;51.074;13.764;2023-08-21T10:13:48;6.35;;;4.65;;
43801;SDS011;29429;51.074;13.764;2023-08-21T10:16:17;5.38;;;4.45;;
43801;SDS011;29429;51.074;13.764;2023-08-21T10:18:47;5.40;;;4.07;;
43801;SDS011;29429;51.074;13.764;2023-08-21T10:23:46;5.50;;;3.95;;
43801;SDS011;29429;51.074;13.764;2023-08-21T10:26:15;4.30;;;3.72;;
43801;SDS011;29429;51.074;13.764;2023-08-21T10:31:39;4.45;;;4.03;;
43801;SDS011;29429;51.074;13.764;2023-08-21T10:34:11;6.73;;;4.90;;
43801;SDS011;29429;51.074;13.764;2023-08-21T10:39:14;4.97;;;3.80;;
43801;SDS011;29429;51.074;13.764;2023-08-21T10:41:55;5.50;;;3.83;;
43801;SDS011;29429;51.074;13.764;2023-08-21T10:44:36;5.50;;;4.53;;
43801;SDS011;29429;51.074;13.764;2023-08-21T10:47:17;5.57;;;3.88;;
43801;SDS011;29429;51.074;13.764;2023-08-21T10:49:53;4.82;;;3.60;;
43801;SDS011;29429;51.074;13.764;2023-08-21T10:52:23;6.30;;;4.05;;
43801;SDS011;29429;51.074;13.764;2023-08-21T10:54:56;5.13;;;4.05;;
43801;SDS011;29429;51.074;13.764;2023-08-21T10:57:25;4.82;;;4.32;;
43801;SDS011;29429;51.074;13.764;2023-08-21T11:02:31;6.18;;;4.18;;
43801;SDS011;29429;51.074;13.764;2023-08-21T11:05:00;4.57;;;4.18;;
43801;SDS011;29429;51.074;13.764;2023-08-21T11:07:29;5.50;;;4.22;;
43801;SDS011;29429;51.074;13.764;2023-08-21T11:10:03;5.75;;;4.25;;
43801;SDS011;29429;51.074;13.764;2023-08-21T11:12:37;6.68;;;4.78;;
43801;SDS011;29429;51.074;13.764;2023-08-21T11:15:05;4.32;;;3.65;;
43801;SDS011;29429;51.074;13.764;2023-08-21T11:17:32;5.53;;;3.88;;
43801;SDS011;29429;51.074;13.764;2023-08-21T11:20:00;6.28;;;4.47;;
43801;SDS011;29429;51.074;13.764;2023-08-21T11:22:31;10.27;;;4.05;;
43801;SDS011;29429;51.074;13.764;2023-08-21T11:24:59;5.93;;;4.10;;
43801;SDS011;29429;51.074;13.764;2023-08-21T11:27:26;5.18;;;4.05;;
43801;SDS011;29429;51.074;13.764;2023-08-21T11:29:54;7.43;;;4.18;;
43801;SDS011;29429;51.074;13.764;2023-08-21T11:32:22;4.85;;;4.30;;
43801;SDS011;29429;51.074;13.764;2023-08-21T11:34:53;5.60;;;4.18;;
43801;SDS011;29429;51.074;13.764;2023-08-21T11:37:23;6.57;;;4.03;;
43801;SDS011;29429;51.074;13.764;2023-08-21T11:39:55;6.65;;;5.07;;
43801;SDS011;29429;51.074;13.764;2023-08-21T11:42:31;4.72;;;3.90;;
43801;SDS011;29429;51.074;13.764;2023-08-21T11:44:59;7.57;;;4.57;;
43801;SDS011;29429;51.074;13.764;2023-08-21T11:47:32;6.47;;;4.40;;
43801;SDS011;29429;51.074;13.764;2023-08-21T11:50:02;4.97;;;4.22;;
43801;SDS011;29429;51.074;13.764;2023-08-21T11:52:31;6.35;;;4.97;;
43801;SDS011;29429;51.074;13.764;2023-08-21T11:54:59;5.57;;;4.68;;
43801;SDS011;29429;51.074;13.764;2023-08-21T11:57:26;5.10;;;4.60;;
43801;SDS011;29429;51.074;13.764;2023-08-21T11:59:56;9.10;;;4.70;;
43801;SDS011;29429;51.074;13.764;2023-08-21T12:02:24;5.28;;;4.53;;
43801;SDS011;29429;51.074;13.764;2023-08-21T12:05:00;7.13;;;4.68;;
43801;SDS011;29429;51.074;13.764;2023-08-21T12:07:34;5.22;;;4.30;;
43801;SDS011;29429;51.074;13.764;2023-08-21T12:10:02;5.00;;;4.55;;
43801;SDS011;29429;51.074;13.764;2023-08-21T12:12:29;5.07;;;4.57;;
43801;SDS011;29429;51.074;13.764;2023-08-21T12:14:57;5.95;;;4.63;;
43801;SDS011;29429;51.074;13.764;2023-08-21T12:17:24;6.25;;;5.30;;
43801;SDS011;29429;51.074;13.764;2023-08-21T12:19:52;6.30;;;5.07;;
43801;SDS011;29429;51.074;13.764;2023-08-21T12:22:19;5.35;;;4.68;;
43801;SDS011;29429;51.074;13.764;2023-08-21T12:24:47;8.60;;;4.72;;
43801;SDS011;29429;51.074;13.764;2023-08-21T12:27:15;5.88;;;4.85;;
43801;SDS011;29429;51.074;13.764;2023-08-21T12:29:42;7.70;;;5.07;;
43801;SDS011;29429;51.074;13.764;2023-08-21T12:32:13;5.93;;;4.60;;
43801;SDS011;29429;51.074;13.764;2023-08-21T12:34:40;5.95;;;4.63;;
43801;SDS011;29429;51.074;13.764;2023-08-21T12:37:07;6.82;;;4.60;;
43801;SDS011;29429;51.074;13.764;2023-08-21T12:39:35;5.45;;;4.72;;
43801;SDS011;29429;51.074;13.764;2023-08-21T12:42:02;6.78;;;4.93;;
43801;SDS011;29429;51.074;13.764;2023-08-21T12:44:30;5.53;;;4.97;;
43801;SDS011;29429;51.074;13.764;2023-08-21T12:46:59;5.82;;;4.85;;
43801;SDS011;29429;51.074;13.764;2023-08-21T12:49:26;7.10;;;5.13;;
43801;SDS011;29429;51.074;13.764;2023-08-21T12:51:54;5.78;;;4.93;;
43801;SDS011;29429;51.074;13.764;2023-08-21T12:54:21;6.70;;;5.28;;
43801;SDS011;29429;51.074;13.764;2023-08-21T12:56:49;4.65;;;4.25;;
43801;SDS011;29429;51.074;13.764;2023-08-21T12:59:16;6.47;;;4.32;;
43801;SDS011;29429;51.074;13.764;2023-08-21T13:01:45;6.10;;;4.07;;
43801;SDS011;29429;51.074;13.764;2023-08-21T13:04:13;5.88;;;4.70;;
43801;SDS011;29429;51.074;13.764;2023-08-21T13:06:40;6.13;;;4.60;;
43801;SDS011;29429;51.074;13.764;2023-08-21T13:09:08;6.75;;;4.28;;
43801;SDS011;29429;51.074;13.764;2023-08-21T13:11:35;5.18;;;4.53;;
43801;SDS011;29429;51.074;13.764;2023-08-21T13:14:03;4.82;;;4.43;;
43801;SDS011;29429;51.074;13.764;2023-08-21T13:16:30;6.65;;;4.22;;
43801;SDS011;29429;51.074;13.764;2023-08-21T13:18:58;5.00;;;4.50;;
43801;SDS011;29429;51.074;13.764;2023-08-21T13:21:25;7.75;;;4.80;;
43801;SDS011;29429;51.074;13.764;2023-08-21T13:23:52;5.55;;;4.75;;
43801;SDS011;29429;51.074;13.764;2023-08-21T13:26:20;5.63;;;4.50;;
43801;SDS011;29429;51.074;13.764;2023-08-21T13:28:48;6.28;;;4.68;;
43801;SDS011;29429;51.074;13.764;2023-08-21T13:31:16;7.78;;;5.35;;
43801;SDS011;29429;51.074;13.764;2023-08-21T13:33:44;5.50;;;4.85;;
43801;SDS011;29429;51.074;13.764;2023-08-21T13:36:16;6.00;;;4.13;;
43801;SDS011;29429;51.074;13.764;2023-08-21T13:38:45;5.38;;;4.45;;
43801;SDS011;29429;51.074;13.764;2023-08-21T13:41:12;7.50;;;4.60;;
43801;SDS011;29429;51.074;13.764;2023-08-21T13:43:40;6.25;;;4.65;;
43801;SDS011;29429;51.074;13.764;2023-08-21T13:46:07;5.43;;;4.55;;
43801;SDS011;29429;51.074;13.764;2023-08-21T13:48:35;5.88;;;4.78;;
43801;SDS011;29429;51.074;13.764;2023-08-21T13:51:02;5.57;;;4.93;;
43801;SDS011;29429;51.074;13.764;2023-08-21T13:53:29;8.38;;;4.80;;
43801;SDS011;29429;51.074;13.764;2023-08-21T13:55:57;5.72;;;4.40;;
43801;SDS011;29429;51.074;13.764;2023-08-21T13:58:25;8.48;;;4.70;;
43801;SDS011;29429;51.074;13.764;2023-08-21T14:00:52;6.95;;;4.50;;
43801;SDS011;29429;51.074;13.764;2023-08-21T14:03:22;6.70;;;4.70;;
43801;SDS011;29429;51.074;13.764;2023-08-21T14:05:49;12.38;;;4.90;;
43801;SDS011;29429;51.074;13.764;2023-08-21T14:08:17;6.50;;;4.68;;
43801;SDS011;29429;51.074;13.764;2023-08-21T14:10:45;5.28;;;4.57;;
43801;SDS011;29429;51.074;13.764;2023-08-21T14:13:14;5.00;;;4.55;;
43801;SDS011;29429;51.074;13.764;2023-08-21T14:15:44;5.78;;;4.38;;
43801;SDS011;29429;51.074;13.764;2023-08-21T14:18:12;7.00;;;4.97;;
43801;SDS011;29429;51.074;13.764;2023-08-21T14:20:39;5.60;;;4.47;;
43801;SDS011;29429;51.074;13.764;2023-08-21T14:23:07;5.82;;;4.93;;
43801;SDS011;29429;51.074;13.764;2023-08-21T14:25:36;5.28;;;4.60;;
43801;SDS011;29429;51.074;13.764;2023-08-21T14:28:04;5.32;;;4.53;;
43801;SDS011;29429;51.074;13.764;2023-08-21T14:30:32;7.28;;;4.63;;
43801;SDS011;29429;51.074;13.764;2023-08-21T14:33:00;5.55;;;4.88;;
43801;SDS011;29429;51.074;13.764;2023-08-21T14:35:27;7.50;;;4.65;;
43801;SDS011;29429;51.074;13.764;2023-08-21T14:37:55;4.85;;;4.35;;
43801;SDS011;29429;51.074;13.764;2023-08-21T14:40:22;6.68;;;4.53;;
43801;SDS011;29429;51.074;13.764;2023-08-21T14:42:52;5.63;;;4.32;;
43801;SDS011;29429;51.074;13.764;2023-08-21T14:45:21;5.57;;;4.68;;
43801;SDS011;29429;51.074;13.764;2023-08-21T14:47:49;6.60;;;4.07;;
43801;SDS011;29429;51.074;13.764;2023-08-21T14:50:16;4.53;;;3.80;;
43801;SDS011;29429;51.074;13.764;2023-08-21T14:52:44;5.10;;;3.78;;
43801;SDS011;29429;51.074;13.764;2023-08-21T14:55:11;10.75;;;5.15;;
43801;SDS011;29429;51.074;13.764;2023-08-21T14:57:38;6.22;;;4.38;;
43801;SDS011;29429;51.074;13.764;2023-08-21T15:00:06;4.72;;;4.22;;
43801;SDS011;29429;51.074;13.764;2023-08-21T15:02:36;8.13;;;4.45;;
43801;SDS011;29429;51.074;13.764;2023-08-21T15:05:04;5.18;;;4.18;;
43801;SDS011;29429;51.074;13.764;2023-08-21T15:07:32;5.25;;;4.07;;
43801;SDS011;29429;51.074;13.764;2023-08-21T15:10:00;5.85;;;4.05;;
43801;SDS011;29429;51.074;13.764;2023-08-21T15:12:30;5.35;;;4.20;;
43801;SDS011;29429;51.074;13.764;2023-08-21T15:14:58;6.22;;;4.15;;
43801;SDS011;29429;51.074;13.764;2023-08-21T15:17:25;5.43;;;3.80;;
43801;SDS011;29429;51.074;13.764;2023-08-21T15:19:54;5.10;;;4.43;;
43801;SDS011;29429;51.074;13.764;2023-08-21T15:22:21;6.63;;;4.30;;
43801;SDS011;29429;51.074;13.764;2023-08-21T15:24:49;5.63;;;4.20;;
43801;SDS011;29429;51.074;13.764;2023-08-21T15:27:16;6.90;;;4.05;;
43801;SDS011;29429;51.074;13.764;2023-08-21T15:29:44;6.57;;;3.88;;
43801;SDS011;29429;51.074;13.764;2023-08-21T15:32:11;6.18;;;4.10;;
43801;SDS011;29429;51.074;13.764;2023-08-21T15:34:39;5.53;;;3.83;;
43801;SDS011;29429;51.074;13.764;2023-08-21T15:37:07;5.22;;;3.90;;
43801;SDS011;29429;51.074;13.764;2023-08-21T15:39:35;6.75;;;3.92;;
43801;SDS011;29429;51.074;13.764;2023-08-21T15:42:02;5.25;;;4.03;;
43801;SDS011;29429;51.074;13.764;2023-08-21T15:44:30;7.03;;;3.90;;
43801;SDS011;29429;51.074;13.764;2023-08-21T15:46:57;8.35;;;3.85;;
43801;SDS011;29429;51.074;13.764;2023-08-21T15:49:46;5.72;;;3.80;;
43801;SDS011;29429;51.074;13.764;2023-08-21T15:52:13;6.05;;;4.00;;
43801;SDS011;29429;51.074;13.764;2023-08-21T15:54:41;5.70;;;4.13;;
43801;SDS011;29429;51.074;13.764;2023-08-21T15:57:09;4.97;;;3.90;;
43801;SDS011;29429;51.074;13.764;2023-08-21T15:59:39;5.38;;;3.88;;
43801;SDS011;29429;51.074;13.764;2023-08-21T16:02:08;7.57;;;4.30;;
43801;SDS011;29429;51.074;13.764;2023-08-21T16:04:37;9.15;;;3.85;;
43801;SDS011;29429;51.074;13.764;2023-08-21T16:07:04;7.05;;;3.55;;
43801;SDS011;29429;51.074;13.764;2023-08-21T16:09:32;6.13;;;4.20;;
43801;SDS011;29429;51.074;13.764;2023-08-21T16:11:59;7.85;;;4.15;;
43801;SDS011;29429;51.074;13.764;2023-08-21T16:14:29;5.60;;;3.65;;
43801;SDS011;29429;51.074;13.764;2023-08-21T16:16:56;7.28;;;4.50;;
43801;SDS011;29429;51.074;13.764;2023-08-21T16:19:24;5.60;;;4.30;;
43801;SDS011;29429;51.074;13.764;2023-08-21T16:21:51;4.72;;;3.50;;
43801;SDS011;29429;51.074;13.764;2023-08-21T16:24:19;5.10;;;3.88;;
43801;SDS011;29429;51.074;13.764;2023-08-21T16:26:47;4.80;;;3.75;;
43801;SDS011;29429;51.074;13.764;2023-08-21T16:29:15;4.38;;;3.60;;
43801;SDS011;29429;51.074;13.764;2023-08-21T16:31:47;6.10;;;4.18;;
43801;SDS011;29429;51.074;13.764;2023-08-21T16:34:16;5.72;;;3.88;;
43801;SDS011;29429;51.074;13.764;2023-08-21T16:36:43;4.43;;;3.90;;
43801;SDS011;29429;51.074;13.764;2023-08-21T16:39:10;5.72;;;4.00;;
43801;SDS011;29429;51.074;13.764;2023-08-21T16:41:38;4.90;;;4.32;;
43801;SDS011;29429;51.074;13.764;2023-08-21T16:44:05;6.47;;;4.38;;
43801;SDS011;29429;51.074;13.764;2023-08-21T16:46:34;4.63;;;3.83;;
43801;SDS011;29429;51.074;13.764;2023-08-21T16:49:02;5.35;;;3.88;;
43801;SDS011;29429;51.074;13.764;2023-08-21T16:51:29;5.85;;;4.28;;
43801;SDS011;29429;51.074;13.764;2023-08-21T16:53:57;7.25;;;4.13;;
43801;SDS011;29429;51.074;13.764;2023-08-21T16:56:26;5.55;;;4.30;;
43801;SDS011;29429;51.074;13.764;2023-08-21T16:58:53;4.80;;;4.28;;
43801;SDS011;29429;51.074;13.764;2023-08-21T17:01:20;4.93;;;4.07;;
43801;SDS011;29429;51.074;13.764;2023-08-21T17:03:48;5.20;;;4.40;;
43801;SDS011;29429;51.074;13.764;2023-08-21T17:06:15;5.28;;;4.45;;
43801;SDS011;29429;51.074;13.764;2023-08-21T17:08:43;8.27;;;4.43;;
43801;SDS011;29429;51.074;13.764;2023-08-21T17:11:11;6.05;;;4.80;;
43801;SDS011;29429;51.074;13.764;2023-08-21T17:13:38;6.45;;;4.60;;
43801;SDS011;29429;51.074;13.764;2023-08-21T17:16:06;6.70;;;4.72;;
43801;SDS011;29429;51.074;13.764;2023-08-21T17:18:33;5.57;;;4.63;;
43801;SDS011;29429;51.074;13.764;2023-08-21T17:21:01;7.10;;;4.50;;
43801;SDS011;29429;51.074;13.764;2023-08-21T17:23:28;6.28;;;4.65;;
43801;SDS011;29429;51.074;13.764;2023-08-21T17:25:56;5.10;;;4.60;;
43801;SDS011;29429;51.074;13.764;2023-08-21T17:28:24;6.68;;;4.57;;
43801;SDS011;29429;51.074;13.764;2023-08-21T17:30:51;7.70;;;4.60;;
43801;SDS011;29429;51.074;13.764;2023-08-21T17:33:20;5.35;;;4.28;;
43801;SDS011;29429;51.074;13.764;2023-08-21T17:35:48;5.00;;;4.32;;
43801;SDS011;29429;51.074;13.764;2023-08-21T17:38:16;8.85;;;4.80;;
43801;SDS011;29429;51.074;13.764;2023-08-21T17:40:43;6.32;;;4.90;;
43801;SDS011;29429;51.074;13.764;2023-08-21T17:43:11;4.75;;;4.22;;
43801;SDS011;29429;51.074;13.764;2023-08-21T17:45:38;5.50;;;4.55;;
43801;SDS011;29429;51.074;13.764;2023-08-21T17:48:06;7.40;;;4.43;;
43801;SDS011;29429;51.074;13.764;2023-08-21T17:50:34;4.68;;;4.18;;
43801;SDS011;29429;51.074;13.764;2023-08-21T17:53:01;4.55;;;4.05;;
43801;SDS011;29429;51.074;13.764;2023-08-21T17:55:29;4.80;;;4.35;;
43801;SDS011;29429;51.074;13.764;2023-08-21T17:58:00;5.30;;;4.45;;
43801;SDS011;29429;51.074;13.764;2023-08-21T18:00:27;4.68;;;3.92;;
43801;SDS011;29429;51.074;13.764;2023-08-21T18:02:55;5.68;;;4.60;;
43801;SDS011;29429;51.074;13.764;2023-08-21T18:05:22;5.95;;;4.47;;
43801;SDS011;29429;51.074;13.764;2023-08-21T18:07:49;5.70;;;4.32;;
43801;SDS011;29429;51.074;13.764;2023-08-21T18:10:17;7.25;;;4.75;;
43801;SDS011;29429;51.074;13.764;2023-08-21T18:12:44;6.82;;;4.75;;
43801;SDS011;29429;51.074;13.764;2023-08-21T18:15:12;5.90;;;4.15;;
43801;SDS011;29429;51.074;13.764;2023-08-21T18:17:39;6.97;;;4.70;;
43801;SDS011;29429;51.074;13.764;2023-08-21T18:20:08;5.57;;;4.53;;
43801;SDS011;29429;51.074;13.764;2023-08-21T18:22:36;6.40;;;4.47;;
43801;SDS011;29429;51.074;13.764;2023-08-21T18:25:04;6.00;;;4.28;;
43801;SDS011;29429;51.074;13.764;2023-08-21T18:27:31;4.47;;;4.07;;
43801;SDS011;29429;51.074;13.764;2023-08-21T18:29:59;5.13;;;4.22;;
43801;SDS011;29429;51.074;13.764;2023-08-21T18:32:28;6.82;;;4.72;;
43801;SDS011;29429;51.074;13.764;2023-08-21T18:34:55;6.93;;;5.13;;
43801;SDS011;29429;51.074;13.764;2023-08-21T18:37:24;5.93;;;4.40;;
43801;SDS011;29429;51.074;13.764;2023-08-21T18:39:52;5.55;;;4.95;;
43801;SDS011;29429;51.074;13.764;2023-08-21T18:42:19;6.10;;;4.88;;
43801;SDS011;29429;51.074;13.764;2023-08-21T18:44:46;5.57;;;4.88;;
43801;SDS011;29429;51.074;13.764;2023-08-21T18:47:14;7.38;;;4.63;;
43801;SDS011;29429;51.074;13.764;2023-08-21T18:49:42;9.32;;;4.47;;
43801;SDS011;29429;51.074;13.764;2023-08-21T18:52:10;6.88;;;5.05;;
43801;SDS011;29429;51.074;13.764;2023-08-21T18:54:37;5.32;;;4.82;;
43801;SDS011;29429;51.074;13.764;2023-08-21T18:57:04;5.22;;;4.72;;
43801;SDS011;29429;51.074;13.764;2023-08-21T18:59:32;5.70;;;5.10;;
43801;SDS011;29429;51.074;13.764;2023-08-21T19:01:59;7.28;;;4.97;;
43801;SDS011;29429;51.074;13.764;2023-08-21T19:04:28;5.80;;;5.20;;
43801;SDS011;29429;51.074;13.764;2023-08-21T19:06:58;8.13;;;5.05;;
43801;SDS011;29429;51.074;13.764;2023-08-21T19:12:00;6.60;;;5.10;;
43801;SDS011;29429;51.074;13.764;2023-08-21T19:14:28;6.85;;;5.10;;
43801;SDS011;29429;51.074;13.764;2023-08-21T19:16:55;8.15;;;5.18;;
43801;SDS011;29429;51.074;13.764;2023-08-21T19:19:22;6.30;;;5.22;;
43801;SDS011;29429;51.074;13.764;2023-08-21T19:21:50;6.63;;;5.10;;
43801;SDS011;29429;51.074;13.764;2023-08-21T19:24:17;7.80;;;5.57;;
43801;SDS011;29429;51.074;13.764;2023-08-21T19:26:45;6.20;;;5.60;;
43801;SDS011;29429;51.074;13.764;2023-08-21T19:29:13;7.05;;;5.10;;
43801;SDS011;29429;51.074;13.764;2023-08-21T19:31:40;6.40;;;5.78;;
43801;SDS011;29429;51.074;13.764;2023-08-21T19:34:08;7.00;;;5.05;;
43801;SDS011;29429;51.074;13.764;2023-08-21T19:36:35;6.15;;;4.82;;
43801;SDS011;29429;51.074;13.764;2023-08-21T19:39:03;5.05;;;4.50;;
43801;SDS011;29429;51.074;13.764;2023-08-21T19:41:30;6.13;;;5.30;;
43801;SDS011;29429;51.074;13.764;2023-08-21T19:43:58;7.28;;;5.72;;
43801;SDS011;29429;51.074;13.764;2023-08-21T19:46:25;6.00;;;4.57;;
43801;SDS011;29429;51.074;13.764;2023-08-21T19:48:53;5.22;;;4.65;;
43801;SDS011;29429;51.074;13.764;2023-08-21T19:51:20;6.88;;;4.95;;
43801;SDS011;29429;51.074;13.764;2023-08-21T19:53:48;5.93;;;4.93;;
43801;SDS011;29429;51.074;13.764;2023-08-21T19:56:15;6.30;;;5.10;;
43801;SDS011;29429;51.074;13.764;2023-08-21T19:58:43;8.32;;;5.43;;
43801;SDS011;29429;51.074;13.764;2023-08-21T20:01:10;5.68;;;5.07;;
43801;SDS011;29429;51.074;13.764;2023-08-21T20:03:38;7.50;;;5.30;;